Time;durP1;ratioP1;P1;durP2;ratioP2;P2;SDS_P1;SDS_P2;PMS_P1;PMS_P2;Temp;Humidity;BMP_temperature;BMP_pressure;BME280_temperature;BME280_humidity;BME280_pressure;Samples;Min_cycle;Max_cycle;Signal;HPM_P1;HPM_P2
2023/07/24 00:01:23;;;;;;;5.20;2.40;;;18.70;99.90;;;;;;5051162;28;20052;-93
2023/07/24 00:03:48;;;;;;;3.75;2.08;;;18.80;99.90;;;;;;5051126;28;20037;-92
2023/07/24 00:06:14;;;;;;;3.03;2.05;;;18.80;99.90;;;;;;5051839;28;20092;-92
2023/07/24 00:08:39;;;;;;;5.93;2.17;;;18.70;99.90;;;;;;5059680;28;20095;-94
2023/07/24 00:11:08;;;;;;;7.53;2.47;;;18.70;99.90;;;;;;5051373;28;20427;-92
2023/07/24 00:13:34;;;;;;;5.18;2.50;;;18.70;99.90;;;;;;5049851;28;20017;-92
2023/07/24 00:15:59;;;;;;;8.32;2.20;;;18.70;99.90;;;;;;5051949;28;20021;-94
2023/07/24 00:18:25;;;;;;;4.97;2.30;;;18.70;99.90;;;;;;5051039;28;20029;-92
2023/07/24 00:20:50;;;;;;;3.20;2.33;;;18.70;99.90;;;;;;5050671;28;20022;-93
2023/07/24 00:23:16;;;;;;;3.63;2.10;;;18.60;99.90;;;;;;5067758;28;20044;-92
2023/07/24 00:25:42;;;;;;;5.82;2.00;;;18.60;99.90;;;;;;5050979;28;20033;-92
2023/07/24 00:28:08;;;;;;;4.40;2.22;;;18.60;99.90;;;;;;5051953;28;20036;-92
2023/07/24 00:30:33;;;;;;;5.43;2.35;;;18.60;99.90;;;;;;5050480;28;20405;-92
2023/07/24 00:32:59;;;;;;;5.82;2.17;;;18.50;99.90;;;;;;5050847;28;20025;-93
2023/07/24 00:35:25;;;;;;;3.75;2.08;;;18.50;99.90;;;;;;5067291;28;20568;-92
2023/07/24 00:37:51;;;;;;;3.38;1.98;;;18.40;99.90;;;;;;5050249;28;20029;-91
2023/07/24 00:40:16;;;;;;;4.90;2.25;;;18.40;99.90;;;;;;5050769;28;20031;-92
2023/07/24 00:42:47;;;;;;;8.07;2.35;;;18.30;99.90;;;;;;5051115;28;20036;-92
2023/07/24 00:45:12;;;;;;;2.80;2.08;;;18.40;99.90;;;;;;5050736;28;20123;-91
2023/07/24 00:47:38;;;;;;;4.68;2.40;;;18.40;99.90;;;;;;5051317;28;20108;-92
2023/07/24 00:50:04;;;;;;;3.97;2.28;;;18.40;99.90;;;;;;5050252;28;20274;-91
2023/07/24 00:52:30;;;;;;;4.53;2.25;;;18.40;99.90;;;;;;5051473;28;20024;-91
2023/07/24 00:54:56;;;;;;;4.57;2.00;;;18.40;99.90;;;;;;5051051;28;20386;-92
2023/07/24 00:57:22;;;;;;;5.75;2.33;;;18.40;99.90;;;;;;5051219;28;20234;-92
2023/07/24 00:59:48;;;;;;;3.08;2.13;;;18.40;99.90;;;;;;5066321;28;20032;-91
2023/07/24 01:02:14;;;;;;;3.17;2.20;;;18.50;99.90;;;;;;5050823;28;20123;-92
2023/07/24 01:04:40;;;;;;;5.47;2.20;;;18.40;99.90;;;;;;5066861;28;20408;-91
2023/07/24 01:07:06;;;;;;;4.50;2.47;;;18.30;99.90;;;;;;5049901;28;20114;-94
2023/07/24 01:09:31;;;;;;;2.42;2.15;;;18.30;99.90;;;;;;5066395;28;20025;-91
2023/07/24 01:12:02;;;;;;;15.10;2.38;;;18.20;99.90;;;;;;5049178;28;20075;-93
2023/07/24 01:14:47;;;;;;;6.22;2.28;;;18.30;99.90;;;;;;5051127;28;20512;-92
2023/07/24 01:17:17;;;;;;;4.88;2.10;;;18.30;99.90;;;;;;5049898;28;20404;-90
2023/07/24 01:19:50;;;;;;;3.78;2.13;;;18.30;99.90;;;;;;5050649;28;20025;-92
2023/07/24 01:22:28;;;;;;;3.72;2.00;;;18.30;99.90;;;;;;5049641;28;20032;-93
2023/07/24 01:25:04;;;;;;;;;;;18.10;99.90;;;;;;5049656;28;20032;-92
2023/07/24 01:27:29;;;;;;;4.80;2.70;;;18.20;99.90;;;;;;5049275;28;19927;-92
2023/07/24 01:29:55;;;;;;;3.75;2.28;;;18.00;99.90;;;;;;5050636;28;20024;-93
2023/07/24 01:32:21;;;;;;;3.95;2.38;;;18.00;99.90;;;;;;5049796;28;20017;-93
2023/07/24 01:34:47;;;;;;;6.43;2.30;;;18.10;99.90;;;;;;5050717;28;20035;-92
2023/07/24 01:37:13;;;;;;;3.72;2.15;;;18.20;99.90;;;;;;5048422;28;20393;-93
2023/07/24 01:39:43;;;;;;;6.22;2.50;;;18.20;99.90;;;;;;5050746;28;20060;-92
2023/07/24 01:42:09;;;;;;;6.05;2.63;;;18.20;99.90;;;;;;5050478;28;20083;-91
2023/07/24 01:44:35;;;;;;;4.97;2.60;;;18.30;99.90;;;;;;5049769;28;20044;-93
2023/07/24 01:47:01;;;;;;;5.85;2.63;;;18.30;99.90;;;;;;5049223;28;20432;-92
2023/07/24 01:49:26;;;;;;;2.95;2.58;;;18.30;99.90;;;;;;5048658;28;20029;-92
2023/07/24 01:51:52;;;;;;;4.78;2.70;;;18.20;99.90;;;;;;5049047;28;20071;-91
2023/07/24 01:54:17;;;;;;;3.60;2.70;;;18.10;99.90;;;;;;5049246;28;20021;-92
2023/07/24 01:56:43;;;;;;;5.10;2.58;;;18.00;99.90;;;;;;5049413;28;20061;-93
2023/07/24 01:59:09;;;;;;;3.47;2.47;;;18.00;99.90;;;;;;5050294;28;20020;-93
2023/07/24 02:01:35;;;;;;;5.85;3.45;;;17.90;99.90;;;;;;5049253;28;20028;-92
2023/07/24 02:04:01;;;;;;;6.50;2.60;;;18.10;99.90;;;;;;5050210;28;20033;-90
2023/07/24 02:06:26;;;;;;;5.10;2.90;;;18.00;99.90;;;;;;5049638;28;20032;-91
2023/07/24 02:08:52;;;;;;;7.45;3.20;;;18.00;99.90;;;;;;5049311;28;20123;-93
2023/07/24 02:11:18;;;;;;;4.25;3.00;;;18.00;99.90;;;;;;5049538;28;20021;-90
2023/07/24 02:13:45;;;;;;;5.22;3.20;;;18.00;99.90;;;;;;5049978;28;20381;-92
2023/07/24 02:16:11;;;;;;;7.40;3.33;;;17.90;99.90;;;;;;5048730;28;20393;-91
2023/07/24 02:18:38;;;;;;;5.13;3.35;;;18.00;99.90;;;;;;5048416;28;20029;-92
2023/07/24 02:21:03;;;;;;;6.28;3.28;;;18.00;99.90;;;;;;5050199;28;20075;-92
2023/07/24 02:23:29;;;;;;;5.13;3.30;;;18.10;99.90;;;;;;5049881;28;20033;-92
2023/07/24 02:25:55;;;;;;;10.23;3.45;;;18.00;99.90;;;;;;5048681;28;20048;-92
2023/07/24 02:28:21;;;;;;;8.38;3.60;;;18.10;99.90;;;;;;5049357;28;20084;-92
2023/07/24 02:30:47;;;;;;;4.90;3.25;;;18.00;99.90;;;;;;5050403;28;20021;-93
2023/07/24 02:33:13;;;;;;;8.73;3.25;;;18.00;99.90;;;;;;5048729;28;20033;-93
2023/07/24 02:35:40;;;;;;;5.93;3.20;;;17.90;99.90;;;;;;5048923;28;20197;-91
2023/07/24 02:38:05;;;;;;;9.40;3.42;;;18.00;99.90;;;;;;5048980;28;20403;-91
2023/07/24 02:40:31;;;;;;;5.45;3.30;;;17.90;99.90;;;;;;5048982;28;20107;-92
2023/07/24 02:42:57;;;;;;;9.45;3.65;;;18.00;99.90;;;;;;5047656;28;20352;-93
2023/07/24 02:45:22;;;;;;;6.72;3.58;;;18.00;99.90;;;;;;5048409;28;20128;-92
2023/07/24 02:47:48;;;;;;;7.10;3.90;;;18.10;99.90;;;;;;5050591;28;20032;-93
2023/07/24 02:50:14;;;;;;;6.40;3.63;;;17.90;99.90;;;;;;5053839;28;20029;-92
2023/07/24 02:52:39;;;;;;;5.63;3.45;;;18.00;99.90;;;;;;5052441;28;20059;-93
2023/07/24 02:55:05;;;;;;;9.43;3.40;;;17.80;99.90;;;;;;5052081;28;20021;-92
2023/07/24 02:57:31;;;;;;;6.30;3.80;;;17.80;99.90;;;;;;5053749;28;20025;-92
2023/07/24 02:59:57;;;;;;;7.82;3.80;;;17.80;99.90;;;;;;5051894;28;20060;-91
2023/07/24 03:02:23;;;;;;;6.32;3.38;;;17.90;99.90;;;;;;5052627;28;20110;-93
2023/07/24 03:04:48;;;;;;;5.35;3.22;;;17.90;99.90;;;;;;5052746;28;20037;-92
2023/07/24 03:07:14;;;;;;;8.23;3.47;;;17.80;99.90;;;;;;5052393;28;20021;-92
2023/07/24 03:09:39;;;;;;;7.13;3.85;;;17.90;99.90;;;;;;5069021;28;20576;-91
2023/07/24 03:12:05;;;;;;;5.93;3.40;;;17.90;99.90;;;;;;5051821;28;20025;-92
2023/07/24 03:14:31;;;;;;;4.93;3.47;;;17.90;99.90;;;;;;5052368;28;20393;-93
2023/07/24 03:16:57;;;;;;;6.22;2.92;;;17.90;99.90;;;;;;5052919;28;20033;-91
2023/07/24 03:19:22;;;;;;;7.25;3.15;;;17.90;99.90;;;;;;5068762;28;20032;-93
2023/07/24 03:21:48;;;;;;;5.70;3.33;;;18.00;99.90;;;;;;5052590;28;20518;-92
2023/07/24 03:24:14;;;;;;;4.53;3.20;;;18.10;99.90;;;;;;5052920;28;20029;-91
2023/07/24 03:26:39;;;;;;;9.20;3.38;;;17.90;99.90;;;;;;5068226;28;20121;-91
2023/07/24 03:29:05;;;;;;;9.02;3.30;;;17.80;99.90;;;;;;5051316;28;20393;-91
2023/07/24 03:31:31;;;;;;;7.97;3.63;;;17.80;99.90;;;;;;5068447;28;20397;-93
2023/07/24 03:33:57;;;;;;;9.98;3.42;;;17.80;99.90;;;;;;5068455;28;20035;-92
2023/07/24 03:36:23;;;;;;;5.25;3.00;;;17.70;99.90;;;;;;5053457;28;20460;-90
2023/07/24 03:38:48;;;;;;;8.98;3.28;;;17.70;99.90;;;;;;5052463;28;20033;-92
2023/07/24 03:41:14;;;;;;;10.50;2.90;;;17.60;99.90;;;;;;5051664;28;20448;-89
2023/07/24 03:43:40;;;;;;;8.40;3.00;;;17.60;99.90;;;;;;5051472;28;20036;-92
2023/07/24 03:46:05;;;;;;;6.65;3.13;;;17.70;99.90;;;;;;5051488;28;20047;-91
2023/07/24 03:48:31;;;;;;;7.20;3.35;;;17.70;99.90;;;;;;5052780;28;20143;-93
2023/07/24 03:51:00;;;;;;;4.45;2.90;;;17.40;99.90;;;;;;5051035;28;20021;-90
2023/07/24 03:53:26;;;;;;;5.00;3.30;;;17.50;99.90;;;;;;5051557;28;20028;-91
2023/07/24 03:55:51;;;;;;;5.93;2.85;;;17.40;99.90;;;;;;5052243;28;20070;-90
2023/07/24 03:58:17;;;;;;;6.28;2.72;;;17.40;99.90;;;;;;5052014;28;20033;-91
2023/07/24 04:00:42;;;;;;;5.40;3.03;;;17.50;99.90;;;;;;5049835;28;20089;-90
2023/07/24 04:03:09;;;;;;;8.63;3.28;;;17.30;99.90;;;;;;5051850;28;20082;-91
2023/07/24 04:05:35;;;;;;;9.32;2.80;;;17.30;99.90;;;;;;5052411;28;20036;-91
2023/07/24 04:08:01;;;;;;;4.95;2.78;;;17.30;99.90;;;;;;5051006;28;20036;-91
2023/07/24 04:10:27;;;;;;;11.32;3.08;;;17.30;99.90;;;;;;5051914;28;20036;-91
2023/07/24 04:12:53;;;;;;;6.50;2.70;;;17.30;99.90;;;;;;5050776;28;20029;-91
2023/07/24 04:15:19;;;;;;;6.57;2.92;;;17.20;99.90;;;;;;5051188;28;20502;-92
2023/07/24 04:17:44;;;;;;;4.70;2.50;;;17.50;99.90;;;;;;5050186;28;20341;-89
2023/07/24 04:20:10;;;;;;;6.15;2.70;;;17.10;99.90;;;;;;5070027;28;20021;-90
2023/07/24 04:22:36;;;;;;;9.45;2.97;;;17.10;99.90;;;;;;5057407;28;20032;-90
2023/07/24 04:25:01;;;;;;;2.83;2.25;;;17.00;99.90;;;;;;5050071;28;20036;-90
2023/07/24 04:27:28;;;;;;;6.03;2.72;;;16.90;99.90;;;;;;5050579;28;20124;-89
2023/07/24 04:29:53;;;;;;;6.97;2.67;;;17.00;99.90;;;;;;5052415;28;20025;-91
2023/07/24 04:32:19;;;;;;;5.13;2.53;;;17.00;99.90;;;;;;5051715;28;20370;-91
2023/07/24 04:34:44;;;;;;;6.45;2.75;;;17.10;99.90;;;;;;5050864;28;20025;-92
2023/07/24 04:37:10;;;;;;;5.55;2.58;;;17.10;99.90;;;;;;5050511;28;20047;-91
2023/07/24 04:39:39;;;;;;;5.95;2.70;;;17.00;99.90;;;;;;5050647;28;20074;-91
2023/07/24 04:42:05;;;;;;;6.78;2.72;;;17.10;99.90;;;;;;5051209;28;20024;-91
2023/07/24 04:44:31;;;;;;;5.90;2.65;;;17.10;99.90;;;;;;5050015;28;20049;-91
2023/07/24 04:46:58;;;;;;;6.30;2.65;;;17.00;99.90;;;;;;5051303;28;20096;-90
2023/07/24 04:49:24;;;;;;;8.07;2.70;;;17.00;99.90;;;;;;5050974;28;20029;-91
2023/07/24 04:51:50;;;;;;;6.85;2.90;;;16.70;99.90;;;;;;5050348;28;20025;-90
2023/07/24 04:54:17;;;;;;;6.47;2.90;;;16.90;99.90;;;;;;5050132;28;20400;-91
2023/07/24 04:56:42;;;;;;;5.30;2.92;;;16.90;99.90;;;;;;5050377;28;20029;-90
2023/07/24 04:59:08;;;;;;;8.90;2.83;;;17.00;99.90;;;;;;5049356;28;20020;-89
2023/07/24 05:01:34;;;;;;;8.38;3.10;;;17.00;99.90;;;;;;5048990;28;20044;-88
2023/07/24 05:04:00;;;;;;;7.50;3.03;;;16.80;99.90;;;;;;5049728;28;20063;-88
2023/07/24 05:06:26;;;;;;;8.23;2.80;;;17.00;99.90;;;;;;5050919;28;20032;-92
2023/07/24 05:08:53;;;;;;;9.70;2.90;;;17.00;99.90;;;;;;5047141;28;20029;-90
2023/07/24 05:11:19;;;;;;;5.32;2.47;;;17.00;99.90;;;;;;5049088;28;20032;-91
2023/07/24 05:13:44;;;;;;;6.95;3.20;;;17.00;99.90;;;;;;5065769;28;20032;-91
2023/07/24 05:16:10;;;;;;;5.13;2.58;;;16.80;99.90;;;;;;5048523;28;20044;-91
2023/07/24 05:18:36;;;;;;;7.30;2.75;;;17.00;99.90;;;;;;5047245;28;20025;-92
2023/07/24 05:21:02;;;;;;;4.95;2.53;;;17.10;99.90;;;;;;5050157;28;20385;-92
2023/07/24 05:23:27;;;;;;;5.95;2.67;;;17.00;99.90;;;;;;5049132;28;20488;-91
2023/07/24 05:26:00;;;;;;;8.48;2.85;;;17.10;99.90;;;;;;5048666;28;20033;-91
2023/07/24 05:28:30;;;;;;;10.43;3.63;;;17.20;99.90;;;;;;5050550;28;20033;-90
2023/07/24 05:30:59;;;;;;;7.20;2.95;;;17.20;99.90;;;;;;5050962;28;20029;-90
2023/07/24 05:33:25;;;;;;;5.13;2.65;;;17.20;99.90;;;;;;5050867;28;20106;-91
2023/07/24 05:35:50;;;;;;;5.63;2.80;;;17.20;99.90;;;;;;5050013;28;20052;-91
2023/07/24 05:38:16;;;;;;;9.25;2.80;;;17.20;99.90;;;;;;5049723;28;20021;-92
2023/07/24 05:40:42;;;;;;;7.25;2.42;;;17.30;99.90;;;;;;5048919;28;20086;-91
2023/07/24 05:43:07;;;;;;;5.63;2.40;;;17.40;99.90;;;;;;5047948;28;20072;-91
2023/07/24 05:45:33;;;;;;;10.00;3.15;;;17.50;99.90;;;;;;5049662;28;20029;-91
2023/07/24 05:47:59;;;;;;;7.50;2.90;;;17.30;99.90;;;;;;5049196;28;20035;-91
2023/07/24 05:50:25;;;;;;;8.10;3.13;;;17.30;99.90;;;;;;5043226;28;20043;-91
2023/07/24 05:52:51;;;;;;;8.38;2.80;;;17.20;99.90;;;;;;5037382;28;20021;-91
2023/07/24 05:55:16;;;;;;;6.43;2.55;;;17.30;99.90;;;;;;5062834;28;20017;-93
2023/07/24 05:57:42;;;;;;;4.43;2.58;;;17.50;99.90;;;;;;5046799;28;20504;-91
2023/07/24 06:00:08;;;;;;;5.22;2.50;;;17.40;99.90;;;;;;5046991;28;20017;-91
2023/07/24 06:02:33;;;;;;;10.15;3.30;;;17.50;99.90;;;;;;5048836;28;20378;-90
2023/07/24 06:04:59;;;;;;;10.30;3.05;;;17.60;99.90;;;;;;5048727;28;20028;-91
2023/07/24 06:07:25;;;;;;;8.52;2.60;;;17.60;99.90;;;;;;5046019;28;20409;-89
2023/07/24 06:09:51;;;;;;;5.22;2.60;;;17.60;99.90;;;;;;5046687;28;20033;-91
2023/07/24 06:12:17;;;;;;;5.80;2.50;;;17.70;99.90;;;;;;5043322;28;20029;-91
2023/07/24 06:14:42;;;;;;;5.95;2.45;;;17.80;99.90;;;;;;5030277;28;20026;-91
2023/07/24 06:17:08;;;;;;;5.43;2.72;;;17.80;99.90;;;;;;5034209;28;20059;-90
2023/07/24 06:19:34;;;;;;;7.50;2.42;;;17.80;99.90;;;;;;5048378;28;20024;-89
2023/07/24 06:22:00;;;;;;;7.25;3.47;;;17.90;99.90;;;;;;5049935;28;20048;-90
2023/07/24 06:24:26;;;;;;;7.22;2.70;;;17.80;99.90;;;;;;5051831;28;20037;-91
2023/07/24 06:26:51;;;;;;;9.80;2.50;;;18.00;99.90;;;;;;5053154;28;20090;-90
2023/07/24 06:29:17;;;;;;;6.85;2.53;;;18.10;99.90;;;;;;5053718;28;20443;-89
2023/07/24 06:31:43;;;;;;;9.85;2.42;;;18.20;99.90;;;;;;5054475;28;20029;-93
2023/07/24 06:34:09;;;;;;;8.13;2.60;;;18.20;99.90;;;;;;5052448;28;20116;-90
2023/07/24 06:36:37;;;;;;;8.80;2.70;;;18.20;99.90;;;;;;5053959;28;20079;-91
2023/07/24 06:39:03;;;;;;;11.63;3.00;;;18.10;99.90;;;;;;5051250;28;20028;-90
2023/07/24 06:41:28;;;;;;;14.60;3.00;;;18.10;99.90;;;;;;5053084;28;20033;-92
2023/07/24 06:43:54;;;;;;;7.70;2.15;;;18.10;99.90;;;;;;5052216;28;20502;-91
2023/07/24 06:46:20;;;;;;;8.63;2.47;;;18.00;99.90;;;;;;5055760;28;20017;-89
2023/07/24 06:48:45;;;;;;;7.00;2.20;;;18.00;99.90;;;;;;5053558;28;20082;-92
2023/07/24 06:51:14;;;;;;;6.78;2.10;;;18.10;99.90;;;;;;5052512;28;20040;-92
2023/07/24 06:53:40;;;;;;;6.22;2.58;;;18.60;99.90;;;;;;5051767;28;20029;-92
2023/07/24 06:56:05;;;;;;;15.75;2.63;;;18.10;99.90;;;;;;5055046;28;20032;-90
2023/07/24 06:58:31;;;;;;;6.97;2.20;;;18.00;99.90;;;;;;5055259;28;20025;-91
2023/07/24 07:00:57;;;;;;;11.15;2.40;;;17.90;99.90;;;;;;5053015;28;20021;-90
2023/07/24 07:03:22;;;;;;;8.40;2.50;;;18.00;99.90;;;;;;5051407;28;20111;-90
2023/07/24 07:05:48;;;;;;;8.07;2.33;;;17.90;99.90;;;;;;5052588;28;20102;-90
2023/07/24 07:08:13;;;;;;;8.20;2.20;;;17.90;99.90;;;;;;5051133;28;20032;-90
2023/07/24 07:10:39;;;;;;;5.47;2.30;;;18.00;99.90;;;;;;5053673;28;20021;-90
2023/07/24 07:13:05;;;;;;;6.97;2.47;;;17.90;99.90;;;;;;5051287;28;20087;-91
2023/07/24 07:15:30;;;;;;;10.75;3.35;;;18.00;99.90;;;;;;5037042;28;20439;-90
2023/07/24 07:17:56;;;;;;;8.15;2.55;;;18.00;99.90;;;;;;5049788;28;20447;-90
2023/07/24 07:20:21;;;;;;;5.68;2.15;;;17.90;99.90;;;;;;5052188;28;20029;-89
2023/07/24 07:22:47;;;;;;;5.10;2.50;;;18.00;99.90;;;;;;5050627;28;21988;-91
2023/07/24 07:25:13;;;;;;;10.50;2.28;;;18.00;99.90;;;;;;5051233;28;20048;-95
2023/07/24 07:27:38;;;;;;;9.32;2.55;;;18.10;99.90;;;;;;5051492;28;20064;-91
2023/07/24 07:30:05;;;;;;;10.57;3.45;;;18.20;99.90;;;;;;5052631;28;20437;-91
2023/07/24 07:32:31;;;;;;;9.90;2.35;;;18.10;99.90;;;;;;5051512;28;20366;-91
2023/07/24 07:34:57;;;;;;;5.70;2.30;;;18.20;99.90;;;;;;5050943;28;20032;-92
2023/07/24 07:37:25;;;;;;;8.75;2.30;;;18.10;99.90;;;;;;5053333;28;20029;-93
2023/07/24 07:39:50;;;;;;;7.88;2.15;;;18.20;99.90;;;;;;5052036;28;20025;-93
